createdAt,value
2023-02-25T00:01:26.106Z,11.10
2023-02-25T00:03:57.457Z,12.02
2023-02-25T00:06:25.322Z,11.43
2023-02-25T00:08:53.096Z,14.40
2023-02-25T00:11:21.202Z,12.32
2023-02-25T00:13:48.371Z,11.10
2023-02-25T00:16:16.443Z,11.10
2023-02-25T00:18:47.116Z,12.88
2023-02-25T00:21:16.291Z,11.93
2023-02-25T00:23:48.541Z,12.85
2023-02-25T00:26:17.144Z,11.90
2023-02-25T00:28:45.118Z,12.68
2023-02-25T00:31:15.651Z,11.95
2023-02-25T00:33:43.616Z,11.73
2023-02-25T00:36:19.003Z,11.32
2023-02-25T00:38:48.457Z,11.85
2023-02-25T00:41:17.150Z,13.02
2023-02-25T00:43:49.610Z,10.63
2023-02-25T00:46:16.529Z,10.82
2023-02-25T00:48:43.590Z,11.88
2023-02-25T00:51:16.445Z,13.07
2023-02-25T00:53:43.800Z,11.95
2023-02-25T00:56:16.202Z,12.80
2023-02-25T00:58:45.097Z,12.02
2023-02-25T01:01:30.742Z,12.68
2023-02-25T01:03:58.709Z,10.57
2023-02-25T01:06:27.523Z,11.10
2023-02-25T01:08:55.100Z,10.32
2023-02-25T01:11:29.254Z,11.88
2023-02-25T01:13:59.127Z,11.60
2023-02-25T01:16:28.041Z,11.60
2023-02-25T01:19:00.686Z,11.65
2023-02-25T01:21:36.881Z,11.23
2023-02-25T01:24:24.734Z,11.98
2023-02-25T01:26:53.992Z,11.23
2023-02-25T01:29:24.437Z,11.75
2023-02-25T01:31:56.168Z,10.68
2023-02-25T01:34:24.090Z,11.73
2023-02-25T01:36:50.936Z,11.60
2023-02-25T01:39:19.706Z,11.40
2023-02-25T01:41:48.822Z,11.07
2023-02-25T01:44:21.641Z,11.05
2023-02-25T01:46:51.017Z,12.20
2023-02-25T01:49:23.410Z,10.52
2023-02-25T01:51:53.758Z,12.95
2023-02-25T01:54:21.436Z,10.85
2023-02-25T01:56:54.625Z,11.27
2023-02-25T01:59:24.617Z,12.35
2023-02-25T02:01:52.020Z,11.07
2023-02-25T02:04:21.598Z,10.95
2023-02-25T02:06:50.385Z,11.27
2023-02-25T02:09:24.411Z,10.65
2023-02-25T02:14:22.659Z,10.57
2023-02-25T02:17:05.979Z,10.63
2023-02-25T02:19:48.225Z,11.40
2023-02-25T02:22:24.190Z,10.13
2023-02-25T02:25:06.467Z,11.88
2023-02-25T02:28:10.543Z,11.15
2023-02-25T02:30:47.712Z,10.40
2023-02-25T02:33:17.545Z,10.68
2023-02-25T02:36:02.045Z,11.73
2023-02-25T02:38:37.478Z,10.75
2023-02-25T02:41:35.048Z,10.50
2023-02-25T02:44:16.493Z,9.38
2023-02-25T02:46:51.479Z,10.40
2023-02-25T02:49:26.896Z,11.52
2023-02-25T02:52:01.278Z,10.40
2023-02-25T02:54:32.649Z,11.77
2023-02-25T02:57:01.214Z,11.13
2023-02-25T02:59:42.976Z,10.57
2023-02-25T03:02:18.486Z,9.23
2023-02-25T03:04:48.958Z,10.02
2023-02-25T03:07:18.027Z,9.75
2023-02-25T03:09:52.047Z,9.55
2023-02-25T03:12:19.750Z,8.98
2023-02-25T03:14:46.708Z,10.18
2023-02-25T03:17:22.556Z,10.15
2023-02-25T03:20:01.659Z,10.88
2023-02-25T03:22:35.860Z,10.15
2023-02-25T03:25:29.384Z,10.85
2023-02-25T03:27:59.755Z,10.23
2023-02-25T03:30:32.071Z,10.23
2023-02-25T03:33:17.035Z,9.95
2023-02-25T03:35:47.411Z,9.90
2023-02-25T03:38:22.656Z,10.32
2023-02-25T03:40:51.694Z,9.82
2023-02-25T03:43:24.501Z,10.68
2023-02-25T03:45:51.437Z,8.93
2023-02-25T03:48:19.344Z,9.45
2023-02-25T03:51:03.487Z,10.02
2023-02-25T03:53:34.875Z,10.02
2023-02-25T03:56:08.763Z,10.15
2023-02-25T03:58:38.902Z,9.80
2023-02-25T04:01:16.727Z,10.85
2023-02-25T04:03:44.581Z,9.10
2023-02-25T04:06:14.975Z,9.20
2023-02-25T04:08:42.564Z,9.13
2023-02-25T04:11:09.387Z,9.20
2023-02-25T04:13:36.441Z,9.00
2023-02-25T04:16:03.489Z,9.70
2023-02-25T04:18:30.694Z,8.75
2023-02-25T04:20:57.557Z,9.85
2023-02-25T04:23:24.613Z,10.63
2023-02-25T04:25:51.461Z,9.70
2023-02-25T04:28:18.615Z,8.68
2023-02-25T04:30:45.623Z,9.50
2023-02-25T04:33:13.070Z,9.85
2023-02-25T04:35:39.902Z,8.65
2023-02-25T04:38:09.116Z,9.27
2023-02-25T04:40:36.441Z,9.05
2023-02-25T04:43:03.547Z,10.20
2023-02-25T04:45:30.359Z,8.60
2023-02-25T04:48:00.487Z,9.30
2023-02-25T04:50:27.310Z,9.85
2023-02-25T04:52:54.365Z,9.10
2023-02-25T04:55:21.240Z,8.50
2023-02-25T04:57:48.303Z,6.80
2023-02-25T05:00:19.302Z,6.93
2023-02-25T05:02:47.790Z,7.25
2023-02-25T05:05:15.124Z,6.65
2023-02-25T05:07:42.688Z,5.93
2023-02-25T05:10:12.549Z,4.47
2023-02-25T05:12:39.588Z,6.75
2023-02-25T05:15:08.685Z,6.15
2023-02-25T05:17:36.270Z,4.78
2023-02-25T05:20:07.224Z,4.88
2023-02-25T05:22:34.783Z,4.60
2023-02-25T05:25:01.604Z,4.07
2023-02-25T05:27:28.691Z,3.67
2023-02-25T05:29:56.083Z,4.75
2023-02-25T05:32:23.304Z,3.90
2023-02-25T05:34:50.311Z,3.20
2023-02-25T05:37:17.494Z,3.13
2023-02-25T05:39:44.356Z,3.47
2023-02-25T05:42:11.691Z,2.92
2023-02-25T05:44:38.504Z,2.42
2023-02-25T05:47:06.104Z,2.92
2023-02-25T05:49:33.346Z,2.85
2023-02-25T05:52:00.406Z,2.50
2023-02-25T05:54:27.205Z,2.20
2023-02-25T05:56:54.236Z,2.17
2023-02-25T05:59:21.036Z,2.05
2023-02-25T06:01:48.208Z,2.33
2023-02-25T06:04:15.086Z,2.10
2023-02-25T06:06:42.160Z,2.50
2023-02-25T06:09:10.359Z,1.90
2023-02-25T06:11:37.584Z,1.40
2023-02-25T06:14:04.424Z,1.75
2023-02-25T06:16:32.351Z,1.80
2023-02-25T06:19:01.218Z,1.80
2023-02-25T06:21:28.498Z,2.60
2023-02-25T06:23:55.751Z,2.00
2023-02-25T06:26:23.359Z,2.10
2023-02-25T06:28:50.486Z,2.53
2023-02-25T06:31:19.033Z,2.60
2023-02-25T06:33:46.837Z,1.90
2023-02-25T06:36:14.248Z,1.85
2023-02-25T06:38:41.196Z,1.52
2023-02-25T06:41:10.285Z,1.65
2023-02-25T06:43:38.260Z,1.42
2023-02-25T06:46:11.184Z,1.35
2023-02-25T06:48:38.154Z,1.10
2023-02-25T06:51:09.336Z,1.40
2023-02-25T06:53:41.014Z,1.33
2023-02-25T06:56:09.432Z,1.30
2023-02-25T06:58:36.817Z,1.60
2023-02-25T07:01:13.829Z,1.10
2023-02-25T07:03:41.219Z,1.00
2023-02-25T07:06:08.984Z,1.40
2023-02-25T07:08:36.086Z,1.40
2023-02-25T07:11:18.189Z,1.23
2023-02-25T07:13:47.913Z,0.98
2023-02-25T07:16:17.117Z,1.05
2023-02-25T07:18:44.861Z,1.20
2023-02-25T07:21:13.030Z,1.50
2023-02-25T07:23:40.246Z,1.65
2023-02-25T07:26:09.201Z,1.13
2023-02-25T07:28:36.473Z,1.42
2023-02-25T07:31:17.291Z,1.55
2023-02-25T07:33:45.310Z,1.55
2023-02-25T07:36:12.569Z,1.83
2023-02-25T07:38:39.635Z,1.25
2023-02-25T07:41:18.006Z,1.42
2023-02-25T07:43:45.273Z,1.23
2023-02-25T07:46:13.479Z,1.10
2023-02-25T07:48:40.788Z,0.70
2023-02-25T07:51:09.098Z,1.02
2023-02-25T07:53:35.928Z,0.57
2023-02-25T07:56:03.161Z,0.85
2023-02-25T07:58:30.025Z,0.90
2023-02-25T08:00:57.136Z,0.80
2023-02-25T08:03:24.441Z,0.88
2023-02-25T08:05:54.315Z,1.10
2023-02-25T08:08:21.943Z,0.68
2023-02-25T08:10:49.124Z,0.80
2023-02-25T08:13:15.991Z,1.02
2023-02-25T08:15:44.598Z,0.95
2023-02-25T08:18:11.763Z,0.68
2023-02-25T08:20:38.914Z,1.10
2023-02-25T08:23:06.414Z,1.10
2023-02-25T08:25:33.483Z,1.35
2023-02-25T08:28:01.142Z,1.45
2023-02-25T08:30:28.252Z,1.33
2023-02-25T08:32:55.112Z,1.13
2023-02-25T08:35:22.487Z,1.50
2023-02-25T08:37:49.343Z,1.40
2023-02-25T08:40:18.091Z,1.10
2023-02-25T08:42:46.661Z,1.33
2023-02-25T08:45:13.715Z,1.50
2023-02-25T08:47:40.487Z,1.23
2023-02-25T08:50:08.342Z,1.20
2023-02-25T08:52:35.484Z,1.40
2023-02-25T08:55:03.641Z,1.48
2023-02-25T08:57:30.581Z,1.50
2023-02-25T08:59:57.667Z,1.13
2023-02-25T09:02:24.453Z,1.35
2023-02-25T09:04:51.967Z,1.20
2023-02-25T09:07:20.367Z,1.50
2023-02-25T09:09:47.568Z,1.27
2023-02-25T09:12:14.560Z,1.20
2023-02-25T09:14:41.624Z,1.45
2023-02-25T09:17:10.342Z,1.48
2023-02-25T09:19:40.342Z,0.98
2023-02-25T09:22:09.035Z,1.15
2023-02-25T09:24:37.376Z,1.25
2023-02-25T09:27:08.279Z,1.30
2023-02-25T09:29:37.173Z,1.17
2023-02-25T09:32:05.501Z,1.55
2023-02-25T09:34:36.017Z,1.13
2023-02-25T09:37:06.696Z,1.00
2023-02-25T09:39:34.381Z,1.00
2023-02-25T09:42:07.383Z,1.30
2023-02-25T09:44:38.654Z,1.35
2023-02-25T09:47:28.936Z,1.23
2023-02-25T09:49:58.642Z,1.10
2023-02-25T09:52:34.120Z,1.48
2023-02-25T09:55:22.114Z,1.58
2023-02-25T09:58:02.949Z,1.35
2023-02-25T10:00:36.127Z,2.35
2023-02-25T10:03:14.327Z,1.80
2023-02-25T10:06:03.188Z,1.58
2023-02-25T10:08:44.299Z,1.15
2023-02-25T10:11:20.940Z,1.50
2023-02-25T10:14:06.403Z,0.80
2023-02-25T10:16:47.886Z,0.90
2023-02-25T10:19:17.295Z,0.85
2023-02-25T10:22:09.946Z,0.75
2023-02-25T10:24:44.191Z,0.52
2023-02-25T10:27:16.965Z,0.50
2023-02-25T10:29:53.793Z,0.80
2023-02-25T10:32:24.847Z,0.98
2023-02-25T10:34:54.081Z,1.30
2023-02-25T10:37:27.233Z,1.52
2023-02-25T10:39:59.821Z,1.30
2023-02-25T10:42:28.087Z,1.40
2023-02-25T10:45:00.610Z,1.52
2023-02-25T10:47:37.689Z,1.33
2023-02-25T10:50:18.508Z,1.38
2023-02-25T10:53:16.764Z,1.70
2023-02-25T10:55:43.875Z,0.80
2023-02-25T10:58:44.627Z,0.95
2023-02-25T11:01:16.183Z,1.02
2023-02-25T11:03:52.670Z,0.90
2023-02-25T11:06:29.083Z,1.13
2023-02-25T11:08:59.063Z,0.57
2023-02-25T11:11:37.223Z,0.68
2023-02-25T11:14:14.951Z,0.45
2023-02-25T11:16:44.533Z,0.20
2023-02-25T11:19:25.430Z,0.40
2023-02-25T11:21:53.360Z,0.38
2023-02-25T11:24:31.412Z,0.40
2023-02-25T11:27:00.230Z,0.30
2023-02-25T11:29:38.330Z,0.50
2023-02-25T11:32:33.618Z,0.30
2023-02-25T11:35:09.224Z,0.30
2023-02-25T11:37:38.595Z,0.63
2023-02-25T11:40:29.389Z,0.35
2023-02-25T11:43:18.314Z,0.30
2023-02-25T11:46:01.771Z,0.50
2023-02-25T11:48:40.699Z,0.38
2023-02-25T11:51:24.583Z,0.40
2023-02-25T11:54:18.204Z,0.50
2023-02-25T11:56:52.169Z,0.50
2023-02-25T11:59:24.941Z,0.45
2023-02-25T12:02:18.695Z,0.30
2023-02-25T12:04:54.471Z,0.50
2023-02-25T12:08:13.764Z,0.20
2023-02-25T12:11:05.754Z,0.40
2023-02-25T12:13:57.768Z,0.50
2023-02-25T12:17:11.949Z,0.17
2023-02-25T12:20:00.613Z,0.93
2023-02-25T12:22:55.348Z,0.30
2023-02-25T12:25:57.950Z,0.35
2023-02-25T12:28:54.032Z,0.30
2023-02-25T12:31:29.663Z,0.50
2023-02-25T12:34:08.658Z,0.40
2023-02-25T12:37:08.043Z,0.40
2023-02-25T12:39:59.323Z,0.50
2023-02-25T12:42:55.611Z,0.60
2023-02-25T12:45:48.509Z,0.50
2023-02-25T12:48:32.297Z,0.40
2023-02-25T12:51:32.301Z,0.45
2023-02-25T12:54:05.173Z,0.32
2023-02-25T12:57:00.770Z,0.50
2023-02-25T13:00:12.497Z,0.50
2023-02-25T13:02:42.100Z,0.30
2023-02-25T13:05:21.554Z,0.32
2023-02-25T13:07:58.434Z,0.25
2023-02-25T13:10:45.156Z,0.40
2023-02-25T13:13:20.709Z,0.30
2023-02-25T13:16:15.791Z,0.20
2023-02-25T13:18:50.898Z,0.45
2023-02-25T13:21:35.918Z,0.20
2023-02-25T13:24:23.696Z,0.63
2023-02-25T13:26:53.793Z,0.40
2023-02-25T13:29:51.068Z,0.52
2023-02-25T13:32:24.398Z,0.43
2023-02-25T13:35:22.519Z,0.43
2023-02-25T13:38:08.603Z,0.30
2023-02-25T13:40:35.403Z,0.75
2023-02-25T13:43:17.317Z,0.52
2023-02-25T13:46:16.449Z,0.50
2023-02-25T13:48:58.941Z,0.60
2023-02-25T13:52:07.463Z,0.50
2023-02-25T13:54:53.229Z,0.68
2023-02-25T13:57:38.479Z,0.32
2023-02-25T14:00:20.517Z,0.47
2023-02-25T14:03:17.934Z,0.40
2023-02-25T14:06:13.936Z,0.38
2023-02-25T14:09:31.297Z,0.30
2023-02-25T14:12:25.150Z,0.88
2023-02-25T14:15:46.177Z,0.30
2023-02-25T14:18:29.796Z,0.22
2023-02-25T14:21:04.729Z,0.30
2023-02-25T14:23:46.728Z,0.30
2023-02-25T14:26:33.261Z,0.13
2023-02-25T14:29:09.440Z,0.10
2023-02-25T14:32:14.111Z,0.25
2023-02-25T14:34:50.568Z,0.20
2023-02-25T14:37:50.017Z,0.22
2023-02-25T14:40:41.397Z,0.47
2023-02-25T14:43:23.884Z,0.15
2023-02-25T14:45:58.725Z,0.40
2023-02-25T14:48:38.573Z,0.38
2023-02-25T14:51:44.612Z,0.40
2023-02-25T14:54:38.272Z,0.50
2023-02-25T14:57:17.257Z,0.50
2023-02-25T15:00:15.001Z,0.38
2023-02-25T15:02:45.253Z,0.60
2023-02-25T15:05:16.391Z,0.40
2023-02-25T15:08:03.184Z,0.70
2023-02-25T15:11:11.809Z,0.30
2023-02-25T15:14:03.837Z,0.30
2023-02-25T15:16:45.589Z,0.35
2023-02-25T15:19:49.641Z,0.35
2023-02-25T15:22:25.652Z,1.38
2023-02-25T15:25:23.244Z,0.60
2023-02-25T15:27:56.931Z,0.40
2023-02-25T15:30:26.985Z,0.43
2023-02-25T15:32:59.845Z,0.43
2023-02-25T15:35:35.867Z,0.90
2023-02-25T15:38:24.867Z,0.52
2023-02-25T15:40:55.468Z,0.40
2023-02-25T15:43:38.362Z,0.52
2023-02-25T15:46:08.507Z,0.43
2023-02-25T15:48:38.429Z,1.25
2023-02-25T15:51:11.516Z,0.68
2023-02-25T15:53:41.762Z,0.57
2023-02-25T15:56:11.495Z,0.50
2023-02-25T15:58:42.559Z,1.00
2023-02-25T16:01:28.063Z,0.85
2023-02-25T16:03:55.183Z,0.47
2023-02-25T16:06:39.470Z,0.43
2023-02-25T16:09:14.265Z,0.40
2023-02-25T16:11:51.478Z,0.68
2023-02-25T16:14:18.195Z,0.70
2023-02-25T16:17:20.354Z,0.70
2023-02-25T16:19:53.500Z,0.77
2023-02-25T16:22:27.164Z,0.63
2023-02-25T16:24:59.441Z,0.90
2023-02-25T16:27:52.434Z,0.88
2023-02-25T16:30:36.022Z,1.23
2023-02-25T16:33:41.409Z,0.47
2023-02-25T16:36:15.915Z,0.75
2023-02-25T16:39:05.416Z,0.57
2023-02-25T16:41:38.456Z,0.90
2023-02-25T16:44:07.810Z,0.90
2023-02-25T16:46:37.660Z,0.80
2023-02-25T16:49:11.500Z,0.82
2023-02-25T16:51:41.962Z,0.88
2023-02-25T16:54:17.829Z,0.90
2023-02-25T16:56:46.651Z,1.17
2023-02-25T16:59:13.606Z,0.77
2023-02-25T17:01:48.692Z,1.10
2023-02-25T17:04:19.877Z,0.60
2023-02-25T17:07:14.592Z,1.13
2023-02-25T17:10:23.150Z,0.65
2023-02-25T17:12:49.980Z,1.08
2023-02-25T17:15:25.290Z,0.73
2023-02-25T17:18:03.564Z,1.15
2023-02-25T17:20:31.099Z,1.02
2023-02-25T17:23:03.318Z,1.00
2023-02-25T17:25:37.295Z,0.93
2023-02-25T17:28:05.877Z,1.13
2023-02-25T17:30:47.416Z,0.90
2023-02-25T17:33:22.240Z,0.90
2023-02-25T17:35:53.327Z,0.77
2023-02-25T17:38:23.084Z,0.90
2023-02-25T17:40:52.754Z,1.15
2023-02-25T17:43:23.773Z,1.70
2023-02-25T17:45:56.058Z,1.38
2023-02-25T17:48:30.232Z,0.98
2023-02-25T17:51:06.123Z,1.15
2023-02-25T17:53:46.592Z,1.10
2023-02-25T17:56:31.562Z,1.02
2023-02-25T17:59:03.173Z,0.88
2023-02-25T18:01:44.899Z,1.23
2023-02-25T18:04:25.135Z,0.93
2023-02-25T18:06:55.395Z,0.65
2023-02-25T18:09:39.113Z,1.50
2023-02-25T18:12:16.107Z,1.05
2023-02-25T18:14:45.760Z,1.00
2023-02-25T18:17:28.428Z,0.75
2023-02-25T18:19:58.736Z,1.55
2023-02-25T18:22:29.612Z,0.90
2023-02-25T18:25:00.282Z,0.80
2023-02-25T18:27:30.688Z,1.05
2023-02-25T18:30:19.255Z,1.05
2023-02-25T18:32:47.260Z,1.33
2023-02-25T18:35:15.119Z,1.27
2023-02-25T18:37:44.537Z,1.30
2023-02-25T18:40:31.237Z,1.20
2023-02-25T18:42:59.640Z,1.65
2023-02-25T18:45:28.209Z,1.65
2023-02-25T18:48:00.454Z,1.10
2023-02-25T18:50:30.268Z,1.38
2023-02-25T18:52:57.357Z,1.60
2023-02-25T18:55:26.942Z,1.45
2023-02-25T18:57:54.735Z,1.80
2023-02-25T19:00:23.982Z,1.65
2023-02-25T19:03:02.926Z,1.13
2023-02-25T19:05:30.265Z,1.27
2023-02-25T19:07:57.562Z,1.92
2023-02-25T19:10:30.689Z,2.00
2023-02-25T19:13:04.445Z,1.98
2023-02-25T19:15:31.386Z,1.52
2023-02-25T19:17:58.495Z,1.33
2023-02-25T19:20:25.429Z,1.83
2023-02-25T19:22:53.531Z,1.88
2023-02-25T19:25:27.099Z,1.50
2023-02-25T19:30:25.353Z,1.55
2023-02-25T19:32:53.036Z,1.52
2023-02-25T19:35:19.861Z,1.70
2023-02-25T19:37:47.207Z,1.42
2023-02-25T19:40:16.055Z,1.30
2023-02-25T19:42:44.810Z,1.25
2023-02-25T19:45:14.652Z,1.80
2023-02-25T19:47:42.386Z,1.27
2023-02-25T19:50:11.591Z,1.52
2023-02-25T19:52:39.011Z,1.40
2023-02-25T19:55:07.340Z,1.90
2023-02-25T19:57:34.414Z,1.77
2023-02-25T20:00:01.234Z,1.20
2023-02-25T20:02:28.328Z,1.98
2023-02-25T20:04:55.114Z,1.52
2023-02-25T20:07:22.200Z,1.20
2023-02-25T20:09:49.134Z,1.60
2023-02-25T20:12:16.355Z,1.40
2023-02-25T20:14:43.213Z,1.88
2023-02-25T20:17:10.297Z,1.10
2023-02-25T20:19:37.149Z,1.33
2023-02-25T20:22:06.003Z,1.40
2023-02-25T20:24:34.282Z,1.40
2023-02-25T20:27:04.393Z,0.93
2023-02-25T20:29:31.455Z,1.15
2023-02-25T20:31:58.873Z,1.30
2023-02-25T20:34:27.485Z,1.20
2023-02-25T20:37:03.365Z,2.22
2023-02-25T20:39:39.367Z,1.40
2023-02-25T20:42:11.680Z,1.02
2023-02-25T20:44:38.932Z,0.95
2023-02-25T20:47:06.937Z,1.15
2023-02-25T20:49:34.203Z,1.10
2023-02-25T20:52:01.453Z,0.80
2023-02-25T20:54:28.250Z,0.95
2023-02-25T20:56:55.340Z,0.98
2023-02-25T20:59:22.249Z,1.40
2023-02-25T21:01:49.320Z,1.77
2023-02-25T21:04:16.165Z,1.40
2023-02-25T21:06:43.318Z,1.02
2023-02-25T21:09:10.309Z,1.23
2023-02-25T21:11:37.334Z,1.25
2023-02-25T21:14:08.940Z,1.50
2023-02-25T21:16:37.626Z,0.80
2023-02-25T21:19:06.105Z,0.98
2023-02-25T21:21:37.173Z,0.77
2023-02-25T21:24:06.488Z,1.05
2023-02-25T21:26:34.208Z,1.02
2023-02-25T21:29:00.961Z,0.85
2023-02-25T21:31:28.159Z,1.17
2023-02-25T21:33:54.975Z,1.25
2023-02-25T21:36:22.051Z,1.10
2023-02-25T21:38:48.841Z,1.13
2023-02-25T21:41:16.282Z,1.15
2023-02-25T21:43:43.509Z,0.82
2023-02-25T21:46:13.339Z,0.88
2023-02-25T21:48:41.877Z,1.30
2023-02-25T21:51:23.047Z,1.13
2023-02-25T21:53:57.511Z,1.17
2023-02-25T21:56:25.811Z,1.10
2023-02-25T21:58:57.949Z,1.00
2023-02-25T22:01:28.472Z,2.08
2023-02-25T22:03:55.386Z,1.70
2023-02-25T22:06:24.065Z,1.20
2023-02-25T22:08:51.871Z,1.27
2023-02-25T22:11:25.543Z,1.17
2023-02-25T22:13:52.994Z,2.35
2023-02-25T22:16:21.150Z,1.70
2023-02-25T22:18:48.237Z,2.17
2023-02-25T22:21:24.962Z,1.95
2023-02-25T22:23:54.070Z,1.27
2023-02-25T22:26:24.233Z,1.00
2023-02-25T22:28:59.328Z,1.50
2023-02-25T22:31:27.101Z,1.30
2023-02-25T22:33:56.080Z,1.63
2023-02-25T22:36:23.697Z,1.20
2023-02-25T22:38:50.843Z,1.77
2023-02-25T22:41:24.450Z,1.30
2023-02-25T22:43:51.698Z,1.30
2023-02-25T22:46:24.744Z,1.48
2023-02-25T22:48:52.630Z,2.13
2023-02-25T22:51:31.615Z,1.13
2023-02-25T22:53:58.774Z,1.52
2023-02-25T22:56:26.832Z,1.88
2023-02-25T22:58:54.301Z,1.20
2023-02-25T23:01:23.124Z,1.75
2023-02-25T23:03:50.899Z,1.33
2023-02-25T23:06:20.320Z,2.00
2023-02-25T23:08:47.502Z,1.70
2023-02-25T23:11:18.187Z,1.63
2023-02-25T23:13:51.610Z,1.67
2023-02-25T23:18:49.034Z,2.38
2023-02-25T23:21:19.158Z,1.80
2023-02-25T23:23:48.301Z,2.25
2023-02-25T23:26:17.515Z,1.77
2023-02-25T23:28:45.046Z,2.42
2023-02-25T23:31:24.002Z,2.40
2023-02-25T23:33:54.841Z,2.65
2023-02-25T23:36:22.006Z,2.20
2023-02-25T23:38:53.277Z,1.90
2023-02-25T23:41:20.464Z,1.90
2023-02-25T23:43:47.269Z,2.25
2023-02-25T23:46:14.459Z,2.15
2023-02-25T23:48:41.290Z,1.70
2023-02-25T23:51:08.731Z,2.38
2023-02-25T23:53:36.339Z,2.53
2023-02-25T23:56:08.477Z,2.40
2023-02-25T23:58:35.543Z,2.33
